createdAt,value
2018-05-10T00:00:19.007Z,5.70
2018-05-10T00:01:19.237Z,5.40
2018-05-10T00:02:19.467Z,6.20
2018-05-10T00:03:19.700Z,6.10
2018-05-10T00:04:19.928Z,6.10
2018-05-10T00:05:20.160Z,6.30
2018-05-10T00:06:20.389Z,5.90
2018-05-10T00:07:20.616Z,6.40
2018-05-10T00:08:20.857Z,5.60
2018-05-10T00:09:21.077Z,5.90
2018-05-10T00:10:21.309Z,6.70
2018-05-10T00:11:21.550Z,6.40
2018-05-10T00:12:21.771Z,6.60
2018-05-10T00:13:22.000Z,6.20
2018-05-10T00:14:22.221Z,6.10
2018-05-10T00:15:22.451Z,5.90
2018-05-10T00:16:22.679Z,5.60
2018-05-10T00:17:22.908Z,6.60
2018-05-10T00:18:23.134Z,5.90
2018-05-10T00:19:23.358Z,6.70
2018-05-10T00:20:23.585Z,5.80
2018-05-10T00:21:23.812Z,6.20
2018-05-10T00:22:24.050Z,6.50
2018-05-10T00:23:24.274Z,6.80
2018-05-10T00:24:24.608Z,6.00
2018-05-10T00:25:24.738Z,6.40
2018-05-10T00:26:24.973Z,5.90
2018-05-10T00:27:25.196Z,5.60
2018-05-10T00:28:25.422Z,6.30
2018-05-10T00:29:25.665Z,6.40
2018-05-10T00:30:25.879Z,5.50
2018-05-10T00:31:26.099Z,5.90
2018-05-10T00:32:26.330Z,5.80
2018-05-10T00:33:26.558Z,5.70
2018-05-10T00:34:26.789Z,5.80
2018-05-10T00:35:27.018Z,5.60
2018-05-10T00:36:27.248Z,5.70
2018-05-10T00:37:27.485Z,5.40
2018-05-10T00:38:27.713Z,6.20
2018-05-10T00:39:27.952Z,5.60
2018-05-10T00:40:28.183Z,5.60
2018-05-10T00:41:28.409Z,6.00
2018-05-10T00:42:28.643Z,6.10
2018-05-10T00:43:28.872Z,5.30
2018-05-10T00:44:29.108Z,5.00
2018-05-10T00:45:29.337Z,5.80
2018-05-10T00:46:29.558Z,5.60
2018-05-10T00:47:29.793Z,6.40
2018-05-10T00:48:30.023Z,5.40
2018-05-10T00:49:30.250Z,5.70
2018-05-10T00:50:30.478Z,5.70
2018-05-10T00:51:30.709Z,5.70
2018-05-10T00:52:30.936Z,5.70
2018-05-10T00:53:31.169Z,6.00
2018-05-10T00:54:31.396Z,5.40
2018-05-10T00:55:31.627Z,5.30
2018-05-10T00:56:31.857Z,5.80
2018-05-10T00:57:32.091Z,6.00
2018-05-10T00:58:32.317Z,6.00
2018-05-10T00:59:32.546Z,5.10
2018-05-10T01:00:32.780Z,5.60
2018-05-10T01:01:33.015Z,5.70
2018-05-10T01:02:33.243Z,5.30
2018-05-10T01:03:33.465Z,4.90
2018-05-10T01:04:33.701Z,5.80
2018-05-10T01:05:33.930Z,5.00
2018-05-10T01:06:34.158Z,5.40
2018-05-10T01:07:34.389Z,5.30
2018-05-10T01:08:34.616Z,5.10
2018-05-10T01:09:34.846Z,5.40
2018-05-10T01:10:35.075Z,4.90
2018-05-10T01:11:35.312Z,5.30
2018-05-10T01:12:35.542Z,6.00
2018-05-10T01:13:35.772Z,5.60
2018-05-10T01:14:35.989Z,5.30
2018-05-10T01:15:36.211Z,5.10
2018-05-10T01:16:36.439Z,5.00
2018-05-10T01:17:36.672Z,5.20
2018-05-10T01:18:36.902Z,5.60
2018-05-10T01:19:37.127Z,5.20
2018-05-10T01:20:37.361Z,5.40
2018-05-10T01:21:37.596Z,5.00
2018-05-10T01:22:37.824Z,4.90
2018-05-10T01:23:38.052Z,4.80
2018-05-10T01:24:38.318Z,5.10
2018-05-10T01:25:38.549Z,5.40
2018-05-10T01:26:38.778Z,5.80
2018-05-10T01:27:39.007Z,5.30
2018-05-10T01:28:39.237Z,5.60
2018-05-10T01:29:39.468Z,5.50
2018-05-10T01:30:39.692Z,5.80
2018-05-10T01:31:39.923Z,5.40
2018-05-10T01:32:40.154Z,5.40
2018-05-10T01:33:40.383Z,5.50
2018-05-10T01:34:40.613Z,5.90
2018-05-10T01:35:40.839Z,5.90
2018-05-10T01:36:41.072Z,6.10
2018-05-10T01:37:41.301Z,5.70
2018-05-10T01:38:41.529Z,6.20
2018-05-10T01:39:41.758Z,6.20
2018-05-10T01:40:41.990Z,6.00
2018-05-10T01:41:42.208Z,6.40
2018-05-10T01:42:42.439Z,6.10
2018-05-10T01:43:42.668Z,6.00
2018-05-10T01:44:42.896Z,6.30
2018-05-10T01:45:43.123Z,6.30
2018-05-10T01:46:43.351Z,6.90
2018-05-10T01:47:43.632Z,5.20
2018-05-10T01:48:43.811Z,6.00
2018-05-10T01:49:44.047Z,6.40
2018-05-10T01:50:44.269Z,6.80
2018-05-10T01:51:44.500Z,6.20
2018-05-10T01:52:44.737Z,6.40
2018-05-10T01:53:44.954Z,7.40
2018-05-10T01:54:45.178Z,7.70
2018-05-10T01:55:45.406Z,8.00
2018-05-10T01:56:45.635Z,6.80
2018-05-10T01:57:45.865Z,7.70
2018-05-10T01:58:46.108Z,7.30
2018-05-10T01:59:46.317Z,7.30
2018-05-10T02:00:46.550Z,7.30
2018-05-10T02:01:46.780Z,7.90
2018-05-10T02:02:47.009Z,7.20
2018-05-10T02:03:47.238Z,7.30
2018-05-10T02:04:47.473Z,7.10
2018-05-10T02:05:47.693Z,7.00
2018-05-10T02:06:47.925Z,7.90
2018-05-10T02:07:48.152Z,7.10
2018-05-10T02:08:48.381Z,7.20
2018-05-10T02:09:48.612Z,7.20
2018-05-10T02:10:48.836Z,6.70
2018-05-10T02:11:49.065Z,7.40
2018-05-10T02:12:49.293Z,7.00
2018-05-10T02:13:49.523Z,6.70
2018-05-10T02:14:49.765Z,7.30
2018-05-10T02:15:49.978Z,6.60
2018-05-10T02:16:50.208Z,7.20
2018-05-10T02:17:50.436Z,7.40
2018-05-10T02:18:50.665Z,6.30
2018-05-10T02:19:50.893Z,7.30
2018-05-10T02:20:51.129Z,6.70
2018-05-10T02:21:51.357Z,6.90
2018-05-10T02:22:51.589Z,6.30
2018-05-10T02:23:51.813Z,7.00
2018-05-10T02:24:52.045Z,7.10
2018-05-10T02:25:52.276Z,5.60
2018-05-10T02:26:52.502Z,7.10
2018-05-10T02:27:52.730Z,5.80
2018-05-10T02:28:52.960Z,7.00
2018-05-10T02:29:53.188Z,7.10
2018-05-10T02:30:53.421Z,6.00
2018-05-10T02:31:53.647Z,6.30
2018-05-10T02:32:53.877Z,7.00
2018-05-10T02:33:54.104Z,7.20
2018-05-10T02:34:54.333Z,6.70
2018-05-10T02:35:54.564Z,6.70
2018-05-10T02:36:54.795Z,6.80
2018-05-10T02:37:55.022Z,6.40
2018-05-10T02:38:55.252Z,6.70
2018-05-10T02:39:55.478Z,6.90
2018-05-10T02:40:55.711Z,7.50
2018-05-10T02:41:55.944Z,6.10
2018-05-10T02:42:56.172Z,6.40
2018-05-10T02:43:56.405Z,6.90
2018-05-10T02:44:56.705Z,7.80
2018-05-10T02:45:56.864Z,7.30
2018-05-10T02:46:57.090Z,7.10
2018-05-10T02:47:57.318Z,7.30
2018-05-10T02:48:57.547Z,7.20
2018-05-10T02:49:57.776Z,7.40
2018-05-10T02:50:58.007Z,7.50
2018-05-10T02:51:58.237Z,8.60
2018-05-10T02:52:58.467Z,7.80
2018-05-10T02:53:58.689Z,7.70
2018-05-10T02:54:58.928Z,8.70
2018-05-10T02:55:59.148Z,7.70
2018-05-10T02:56:59.379Z,8.30
2018-05-10T02:57:59.606Z,7.80
2018-05-10T02:58:59.835Z,9.20
2018-05-10T03:00:00.066Z,8.00
2018-05-10T03:01:00.300Z,8.10
2018-05-10T03:02:00.526Z,9.40
2018-05-10T03:03:00.757Z,9.90
2018-05-10T03:04:00.991Z,9.30
2018-05-10T03:05:01.211Z,9.50
2018-05-10T03:06:01.445Z,9.40
2018-05-10T03:07:01.673Z,10.00
2018-05-10T03:08:01.903Z,9.40
2018-05-10T03:09:02.143Z,9.30
2018-05-10T03:10:02.365Z,10.00
2018-05-10T03:11:02.587Z,11.40
2018-05-10T03:12:02.812Z,10.40
2018-05-10T03:13:03.044Z,10.00
2018-05-10T03:14:03.272Z,8.70
2018-05-10T03:15:03.501Z,8.80
2018-05-10T03:16:03.729Z,8.30
2018-05-10T03:17:03.968Z,8.30
2018-05-10T03:18:04.198Z,7.90
2018-05-10T03:19:04.423Z,7.00
2018-05-10T03:20:04.652Z,6.70
2018-05-10T03:21:04.881Z,6.50
2018-05-10T03:22:05.112Z,6.90
2018-05-10T03:23:05.342Z,7.80
2018-05-10T03:24:05.570Z,7.20
2018-05-10T03:25:05.798Z,6.60
2018-05-10T03:26:06.025Z,6.50
2018-05-10T03:27:06.257Z,6.10
2018-05-10T03:28:06.482Z,5.70
2018-05-10T03:29:06.708Z,7.10
2018-05-10T03:30:06.934Z,6.40
2018-05-10T03:31:07.165Z,6.70
2018-05-10T03:32:07.393Z,6.10
2018-05-10T03:33:07.628Z,6.20
2018-05-10T03:34:07.849Z,7.90
2018-05-10T03:35:08.072Z,8.20
2018-05-10T03:36:08.326Z,7.80
2018-05-10T03:37:08.553Z,8.70
2018-05-10T03:38:08.782Z,7.30
2018-05-10T03:39:09.010Z,7.40
2018-05-10T03:40:09.241Z,7.20
2018-05-10T03:41:09.468Z,6.80
2018-05-10T03:42:09.696Z,7.20
2018-05-10T03:43:09.928Z,8.10
2018-05-10T03:44:10.160Z,7.60
2018-05-10T03:45:10.393Z,8.00
2018-05-10T03:46:10.620Z,7.90
2018-05-10T03:47:10.845Z,7.30
2018-05-10T03:48:11.074Z,7.40
2018-05-10T03:49:11.303Z,8.90
2018-05-10T03:50:11.534Z,7.30
2018-05-10T03:51:11.762Z,7.70
2018-05-10T03:52:11.991Z,6.80
2018-05-10T03:53:12.222Z,7.50
2018-05-10T03:54:12.447Z,6.90
2018-05-10T03:55:12.674Z,6.60
2018-05-10T03:56:12.902Z,6.60
2018-05-10T03:57:13.130Z,7.00
2018-05-10T03:58:13.360Z,6.50
2018-05-10T03:59:13.599Z,6.50
2018-05-10T04:00:13.820Z,5.90
2018-05-10T04:01:14.053Z,6.40
2018-05-10T04:02:14.279Z,6.60
2018-05-10T04:03:14.509Z,6.00
2018-05-10T04:04:14.743Z,7.10
2018-05-10T04:05:14.964Z,6.80
2018-05-10T04:06:15.195Z,6.30
2018-05-10T04:07:15.431Z,6.20
2018-05-10T04:08:15.655Z,6.00
2018-05-10T04:09:15.884Z,5.90
2018-05-10T04:10:16.115Z,6.80
2018-05-10T04:11:16.341Z,6.90
2018-05-10T04:12:16.578Z,6.60
2018-05-10T04:13:16.803Z,6.40
2018-05-10T04:14:17.034Z,6.50
2018-05-10T04:15:17.263Z,6.50
2018-05-10T04:16:17.488Z,6.90
2018-05-10T04:17:17.717Z,6.70
2018-05-10T04:18:17.947Z,6.20
2018-05-10T04:19:18.180Z,6.70
2018-05-10T04:20:18.408Z,6.60
2018-05-10T04:21:18.630Z,7.00
2018-05-10T04:22:18.863Z,7.60
2018-05-10T04:23:19.093Z,7.20
2018-05-10T04:24:19.322Z,8.80
2018-05-10T04:25:19.548Z,9.30
2018-05-10T04:26:19.782Z,7.80
2018-05-10T04:27:20.012Z,8.30
2018-05-10T04:28:20.240Z,7.90
2018-05-10T04:29:20.471Z,9.50
2018-05-10T04:30:20.696Z,8.40
2018-05-10T04:31:20.933Z,8.60
2018-05-10T04:32:21.150Z,8.70
2018-05-10T04:33:21.377Z,9.50
2018-05-10T04:34:21.606Z,8.60
2018-05-10T04:35:21.835Z,8.60
2018-05-10T04:36:22.063Z,8.90
2018-05-10T04:37:22.296Z,8.40
2018-05-10T04:38:22.526Z,8.80
2018-05-10T04:39:22.755Z,9.40
2018-05-10T04:40:22.985Z,8.50
2018-05-10T04:41:23.213Z,9.40
2018-05-10T04:42:23.441Z,9.50
2018-05-10T04:43:23.669Z,9.90
2018-05-10T04:44:23.898Z,10.30
2018-05-10T04:45:24.122Z,9.80
2018-05-10T04:46:24.355Z,9.40
2018-05-10T04:47:24.577Z,8.90
2018-05-10T04:48:24.810Z,8.90
2018-05-10T04:49:25.040Z,9.30
2018-05-10T04:50:25.277Z,8.50
2018-05-10T04:51:25.506Z,8.00
2018-05-10T04:52:25.738Z,6.90
2018-05-10T04:53:26.002Z,7.00
2018-05-10T04:54:26.231Z,7.70
2018-05-10T04:55:26.460Z,7.10
2018-05-10T04:56:26.696Z,7.30
2018-05-10T04:57:26.924Z,7.60
2018-05-10T04:58:27.153Z,7.80
2018-05-10T04:59:27.378Z,8.80
2018-05-10T05:00:27.612Z,9.40
2018-05-10T05:01:27.843Z,8.80
2018-05-10T05:02:28.072Z,9.00
2018-05-10T05:03:28.332Z,8.50
2018-05-10T05:04:28.530Z,7.90
2018-05-10T05:05:28.760Z,8.00
2018-05-10T05:06:28.987Z,8.30
2018-05-10T05:07:29.214Z,7.80
2018-05-10T05:08:29.445Z,8.50
2018-05-10T05:09:29.672Z,7.20
2018-05-10T05:10:29.900Z,7.30
2018-05-10T05:11:30.135Z,7.10
2018-05-10T05:12:30.359Z,7.60
2018-05-10T05:13:30.593Z,8.70
2018-05-10T05:14:30.824Z,7.40
2018-05-10T05:15:31.049Z,7.90
2018-05-10T05:16:31.277Z,7.70
2018-05-10T05:17:31.510Z,6.50
2018-05-10T05:18:31.737Z,6.80
2018-05-10T05:19:31.968Z,7.60
2018-05-10T05:20:32.197Z,8.00
2018-05-10T05:21:32.450Z,7.00
2018-05-10T05:22:32.668Z,7.20
2018-05-10T05:23:32.967Z,7.40
2018-05-10T05:24:33.095Z,6.70
2018-05-10T05:25:33.323Z,7.30
2018-05-10T05:26:33.552Z,7.20
2018-05-10T05:27:33.784Z,6.20
2018-05-10T05:28:34.010Z,7.00
2018-05-10T05:29:34.236Z,6.60
2018-05-10T05:30:34.468Z,6.10
2018-05-10T05:31:34.695Z,6.20
2018-05-10T05:32:34.933Z,6.00
2018-05-10T05:33:35.150Z,5.70
2018-05-10T05:34:35.382Z,6.50
2018-05-10T05:35:35.708Z,5.70
2018-05-10T05:36:35.929Z,5.50
2018-05-10T05:37:36.066Z,5.50
2018-05-10T05:38:36.300Z,6.30
2018-05-10T05:39:36.536Z,6.70
2018-05-10T05:40:36.757Z,5.30
2018-05-10T05:41:36.981Z,5.80
2018-05-10T05:42:37.211Z,5.60
2018-05-10T05:43:37.534Z,5.90
2018-05-10T05:44:37.671Z,6.10
2018-05-10T05:45:37.904Z,5.70
2018-05-10T05:46:38.136Z,5.10
2018-05-10T05:47:38.367Z,5.00
2018-05-10T05:48:38.597Z,5.20
2018-05-10T05:49:38.827Z,5.90
2018-05-10T05:50:39.054Z,5.60
2018-05-10T05:51:39.279Z,6.70
2018-05-10T05:52:39.506Z,6.10
2018-05-10T05:53:39.741Z,6.70
2018-05-10T05:54:39.968Z,6.70
2018-05-10T05:55:40.197Z,7.10
2018-05-10T05:56:40.427Z,7.40
2018-05-10T05:57:40.655Z,7.20
2018-05-10T05:58:40.883Z,7.20
2018-05-10T05:59:41.112Z,7.40
2018-05-10T06:00:41.341Z,7.00
2018-05-10T06:01:41.571Z,6.70
2018-05-10T06:02:41.801Z,7.40
2018-05-10T06:03:42.036Z,7.80
2018-05-10T06:04:42.263Z,7.10
2018-05-10T06:05:42.490Z,7.30
2018-05-10T06:06:42.718Z,7.30
2018-05-10T06:07:42.949Z,7.00
2018-05-10T06:08:43.201Z,6.70
2018-05-10T06:09:43.409Z,6.50
2018-05-10T06:10:43.634Z,6.90
2018-05-10T06:11:43.862Z,6.90
2018-05-10T06:12:44.089Z,6.80
2018-05-10T06:13:44.320Z,7.00
2018-05-10T06:14:44.549Z,7.20
2018-05-10T06:15:44.806Z,7.30
2018-05-10T06:16:45.010Z,6.80
2018-05-10T06:17:45.242Z,7.40
2018-05-10T06:18:45.476Z,7.00
2018-05-10T06:19:45.708Z,7.50
2018-05-10T06:20:45.935Z,6.80
2018-05-10T06:21:46.166Z,7.10
2018-05-10T06:22:46.398Z,7.60
2018-05-10T06:23:46.628Z,7.00
2018-05-10T06:24:46.965Z,6.50
2018-05-10T06:25:47.093Z,7.00
2018-05-10T06:26:47.323Z,6.70
2018-05-10T06:27:47.554Z,6.40
2018-05-10T06:28:47.783Z,6.30
2018-05-10T06:29:48.016Z,6.60
2018-05-10T06:30:48.245Z,6.90
2018-05-10T06:31:48.480Z,6.80
2018-05-10T06:32:48.736Z,7.10
2018-05-10T06:33:48.962Z,6.80
2018-05-10T06:34:49.189Z,6.40
2018-05-10T06:35:49.419Z,6.70
2018-05-10T06:36:49.651Z,11.10
2018-05-10T06:37:49.883Z,7.10
2018-05-10T06:38:50.113Z,6.90
2018-05-10T06:39:50.345Z,6.10
2018-05-10T06:40:50.573Z,6.50
2018-05-10T06:41:50.804Z,6.30
2018-05-10T06:42:51.037Z,6.00
2018-05-10T06:43:51.268Z,6.20
2018-05-10T06:44:51.502Z,7.60
2018-05-10T06:45:51.730Z,6.90
2018-05-10T06:46:52.025Z,5.90
2018-05-10T06:47:52.196Z,6.50
2018-05-10T06:48:52.429Z,6.60
2018-05-10T06:49:52.661Z,5.70
2018-05-10T06:50:52.891Z,6.10
2018-05-10T06:51:53.125Z,5.90
2018-05-10T06:52:53.927Z,6.60
2018-05-10T06:53:53.529Z,6.00
2018-05-10T06:54:53.763Z,5.60
2018-05-10T06:55:53.997Z,5.60
2018-05-10T06:56:54.231Z,5.60
2018-05-10T06:57:54.466Z,5.00
2018-05-10T06:58:54.697Z,5.30
2018-05-10T06:59:54.928Z,5.00
2018-05-10T07:00:55.159Z,5.50
2018-05-10T07:01:55.391Z,5.40
2018-05-10T07:02:55.626Z,5.30
2018-05-10T07:03:55.857Z,5.00
2018-05-10T07:04:56.927Z,5.10
2018-05-10T07:05:56.284Z,5.80
2018-05-10T07:06:56.513Z,5.00
2018-05-10T07:07:56.747Z,5.20
2018-05-10T07:08:56.983Z,6.00
2018-05-10T07:09:57.454Z,5.30
2018-05-10T07:10:57.451Z,5.30
2018-05-10T07:11:57.684Z,5.40
2018-05-10T07:12:57.919Z,5.80
2018-05-10T07:13:58.146Z,5.70
2018-05-10T07:14:58.376Z,5.50
2018-05-10T07:15:58.610Z,5.60
2018-05-10T07:16:58.843Z,5.70
2018-05-10T07:17:59.077Z,5.80
2018-05-10T07:18:59.316Z,5.10
2018-05-10T07:19:59.536Z,5.80
2018-05-10T07:20:59.780Z,5.00
2018-05-10T07:22:00.016Z,5.60
2018-05-10T07:23:00.242Z,5.10
2018-05-10T07:24:00.478Z,6.10
2018-05-10T07:25:00.751Z,5.50
2018-05-10T07:26:00.943Z,5.70
2018-05-10T07:27:01.179Z,5.60
2018-05-10T07:28:01.413Z,5.20
2018-05-10T07:29:01.648Z,5.70
2018-05-10T07:30:01.879Z,5.90
2018-05-10T07:31:02.111Z,5.70
2018-05-10T07:32:02.350Z,5.70
2018-05-10T07:33:02.679Z,5.70
2018-05-10T07:34:02.812Z,5.70
2018-05-10T07:35:03.053Z,5.70
2018-05-10T07:36:03.270Z,5.80
2018-05-10T07:37:03.509Z,5.70
2018-05-10T07:38:03.737Z,5.50
2018-05-10T07:39:03.971Z,5.60
2018-05-10T07:40:04.202Z,6.20
2018-05-10T07:41:04.446Z,5.50
2018-05-10T07:42:04.696Z,5.70
2018-05-10T07:43:04.905Z,5.50
2018-05-10T07:44:05.137Z,5.30
2018-05-10T07:45:05.394Z,5.80
2018-05-10T07:46:05.617Z,5.30
2018-05-10T07:47:05.846Z,5.70
2018-05-10T07:48:06.076Z,5.30
2018-05-10T07:49:06.306Z,5.80
2018-05-10T07:50:06.556Z,5.60
2018-05-10T07:51:06.791Z,5.80
2018-05-10T07:52:07.024Z,6.00
2018-05-10T07:53:07.317Z,5.90
2018-05-10T07:54:07.493Z,6.30
2018-05-10T07:55:07.735Z,5.40
2018-05-10T07:56:07.958Z,5.50
2018-05-10T07:57:08.193Z,5.30
2018-05-10T07:58:08.427Z,5.60
2018-05-10T07:59:08.661Z,5.20
2018-05-10T08:00:08.896Z,5.30
2018-05-10T08:01:09.129Z,5.80
2018-05-10T08:02:09.415Z,5.40
2018-05-10T08:03:09.596Z,5.40
2018-05-10T08:04:09.809Z,5.00
2018-05-10T08:05:10.045Z,5.40
2018-05-10T08:06:10.279Z,5.20
2018-05-10T08:07:10.518Z,5.50
2018-05-10T08:08:10.747Z,5.70
2018-05-10T08:09:10.983Z,6.00
2018-05-10T08:10:11.318Z,5.40
2018-05-10T08:11:11.453Z,6.00
2018-05-10T08:12:11.696Z,5.10
2018-05-10T08:13:11.929Z,5.60
2018-05-10T08:14:12.164Z,5.60
2018-05-10T08:15:12.399Z,5.40
2018-05-10T08:16:12.634Z,5.60
2018-05-10T08:17:12.935Z,5.70
2018-05-10T08:18:13.103Z,5.50
2018-05-10T08:19:13.947Z,6.10
2018-05-10T08:20:13.560Z,5.50
2018-05-10T08:21:13.789Z,5.50
2018-05-10T08:22:14.027Z,5.30
2018-05-10T08:23:14.263Z,5.60
2018-05-10T08:24:14.586Z,5.10
2018-05-10T08:25:14.734Z,5.50
2018-05-10T08:26:14.968Z,5.40
2018-05-10T08:27:15.200Z,5.90
2018-05-10T08:28:15.436Z,5.20
2018-05-10T08:29:15.672Z,5.60
2018-05-10T08:30:15.965Z,5.10
2018-05-10T08:31:16.140Z,5.30
2018-05-10T08:32:16.370Z,5.70
2018-05-10T08:33:16.611Z,5.50
2018-05-10T08:34:16.842Z,4.80
2018-05-10T08:35:17.076Z,4.80
2018-05-10T08:36:17.313Z,5.00
2018-05-10T08:37:17.545Z,4.80
2018-05-10T08:38:17.780Z,4.60
2018-05-10T08:39:18.022Z,4.50
2018-05-10T08:40:18.258Z,5.10
2018-05-10T08:41:18.488Z,4.50
2018-05-10T08:42:18.724Z,4.70
2018-05-10T08:43:18.958Z,4.50
2018-05-10T08:44:19.196Z,4.40
2018-05-10T08:45:19.435Z,4.30
2018-05-10T08:46:19.672Z,4.20
2018-05-10T08:47:19.906Z,4.30
2018-05-10T08:48:20.142Z,4.30
2018-05-10T08:49:20.386Z,4.60
2018-05-10T08:50:20.620Z,3.70
2018-05-10T08:51:20.856Z,4.00
2018-05-10T08:52:21.092Z,4.40
2018-05-10T08:53:21.332Z,4.80
2018-05-10T08:54:21.565Z,3.80
2018-05-10T08:55:21.798Z,4.60
2018-05-10T08:56:22.043Z,3.80
2018-05-10T08:57:22.268Z,4.50
2018-05-10T08:58:22.504Z,3.90
2018-05-10T08:59:22.723Z,3.90
2018-05-10T09:00:22.966Z,3.90
2018-05-10T09:01:23.199Z,4.00
2018-05-10T09:02:23.436Z,3.80
2018-05-10T09:03:23.670Z,4.10
2018-05-10T09:04:23.906Z,4.20
2018-05-10T09:05:24.143Z,4.30
2018-05-10T09:06:24.375Z,4.20
2018-05-10T09:07:24.678Z,3.90
2018-05-10T09:08:24.849Z,4.30
2018-05-10T09:09:25.090Z,4.30
2018-05-10T09:10:25.311Z,4.20
2018-05-10T09:11:25.555Z,4.90
2018-05-10T09:12:25.787Z,3.90
2018-05-10T09:13:26.023Z,4.80
2018-05-10T09:14:26.263Z,4.10
2018-05-10T09:15:26.496Z,4.10
2018-05-10T09:16:26.730Z,3.80
2018-05-10T09:17:26.970Z,4.00
2018-05-10T09:18:27.204Z,3.90
2018-05-10T09:19:27.437Z,4.50
2018-05-10T09:20:27.671Z,4.10
2018-05-10T09:21:27.906Z,4.50
2018-05-10T09:22:28.146Z,4.30
2018-05-10T09:23:28.385Z,4.40
2018-05-10T09:24:28.613Z,3.90
2018-05-10T09:25:28.856Z,4.50
2018-05-10T09:26:29.090Z,4.10
2018-05-10T09:27:29.334Z,4.20
2018-05-10T09:28:29.562Z,4.40
2018-05-10T09:29:29.793Z,4.30
2018-05-10T09:30:30.026Z,4.30
2018-05-10T09:31:30.318Z,4.80
2018-05-10T09:32:30.496Z,4.00
2018-05-10T09:33:30.733Z,4.10
2018-05-10T09:34:30.971Z,5.10
2018-05-10T09:35:31.202Z,4.10
2018-05-10T09:36:31.439Z,4.40
2018-05-10T09:37:31.679Z,4.50
2018-05-10T09:38:31.940Z,4.70
2018-05-10T09:39:32.226Z,4.90
2018-05-10T09:40:32.414Z,4.70
2018-05-10T09:41:32.673Z,4.70
2018-05-10T09:42:32.910Z,4.50
2018-05-10T09:43:33.139Z,4.20
2018-05-10T09:44:33.390Z,5.00
2018-05-10T09:45:33.630Z,5.30
2018-05-10T09:46:33.849Z,4.70
2018-05-10T09:47:34.110Z,4.50
2018-05-10T09:48:34.345Z,4.40
2018-05-10T09:49:34.581Z,4.50
2018-05-10T09:50:34.817Z,4.80
2018-05-10T09:51:35.056Z,4.70
2018-05-10T09:52:35.325Z,5.00
2018-05-10T09:53:35.531Z,4.80
2018-05-10T09:54:35.767Z,4.80
2018-05-10T09:55:36.011Z,4.90
2018-05-10T09:56:36.241Z,4.90
2018-05-10T09:57:36.475Z,5.30
2018-05-10T09:58:36.711Z,5.10
2018-05-10T09:59:36.950Z,5.30
2018-05-10T10:00:37.185Z,5.30
2018-05-10T10:01:37.421Z,5.00
2018-05-10T10:02:37.663Z,5.90
2018-05-10T10:03:37.888Z,5.70
2018-05-10T10:04:38.128Z,5.90
2018-05-10T10:05:38.364Z,6.10
2018-05-10T10:06:38.600Z,6.30
2018-05-10T10:07:38.836Z,6.50
2018-05-10T10:08:39.076Z,5.50
2018-05-10T10:09:39.309Z,6.80
2018-05-10T10:10:39.549Z,6.50
2018-05-10T10:11:39.817Z,5.80
2018-05-10T10:12:40.020Z,6.00
2018-05-10T10:13:40.255Z,6.00
2018-05-10T10:14:40.493Z,6.00
2018-05-10T10:15:40.753Z,5.60
2018-05-10T10:16:40.966Z,5.90
2018-05-10T10:17:41.370Z,5.90
2018-05-10T10:18:41.445Z,5.80
2018-05-10T10:19:41.679Z,6.20
2018-05-10T10:20:41.922Z,5.70
2018-05-10T10:21:42.159Z,6.60
2018-05-10T10:22:42.401Z,6.40
2018-05-10T10:23:42.637Z,7.00
2018-05-10T10:24:42.877Z,7.00
2018-05-10T10:25:43.110Z,6.50
2018-05-10T10:26:43.352Z,7.70
2018-05-10T10:27:43.591Z,6.90
2018-05-10T10:28:43.820Z,7.50
2018-05-10T10:29:44.059Z,7.10
2018-05-10T10:30:44.296Z,6.80
2018-05-10T10:31:44.528Z,6.40
2018-05-10T10:32:44.764Z,6.60
2018-05-10T10:33:45.001Z,6.50
2018-05-10T10:34:45.240Z,6.60
2018-05-10T10:35:45.472Z,6.80
2018-05-10T10:36:45.712Z,6.80
2018-05-10T10:37:45.954Z,7.00
2018-05-10T10:38:46.188Z,7.70
2018-05-10T10:39:46.428Z,7.20
2018-05-10T10:40:46.663Z,6.90
2018-05-10T10:41:46.902Z,6.60
2018-05-10T10:42:47.135Z,5.70
2018-05-10T10:43:47.369Z,5.70
2018-05-10T10:44:47.608Z,7.00
2018-05-10T10:45:47.849Z,7.50
2018-05-10T10:46:48.085Z,6.90
2018-05-10T10:47:48.325Z,6.90
2018-05-10T10:48:48.560Z,6.40
2018-05-10T10:49:48.797Z,6.20
2018-05-10T10:50:49.037Z,6.10
2018-05-10T10:51:49.276Z,6.30
2018-05-10T10:52:49.575Z,6.20
2018-05-10T10:53:49.809Z,5.80
2018-05-10T10:54:49.991Z,7.10
2018-05-10T10:55:50.271Z,6.80
2018-05-10T10:56:50.466Z,6.70
2018-05-10T10:57:50.701Z,6.60
2018-05-10T10:58:50.939Z,6.70
2018-05-10T10:59:51.181Z,6.60
2018-05-10T11:00:51.414Z,7.10
2018-05-10T11:01:51.710Z,7.90
2018-05-10T11:02:51.891Z,7.70
2018-05-10T11:03:52.131Z,7.40
2018-05-10T11:04:52.366Z,7.60
2018-05-10T11:05:52.604Z,8.50
2018-05-10T11:06:52.838Z,7.70
2018-05-10T11:07:53.077Z,8.40
2018-05-10T11:08:53.384Z,8.70
2018-05-10T11:09:53.558Z,9.00
2018-05-10T11:10:53.790Z,8.80
2018-05-10T11:11:54.030Z,9.20
2018-05-10T11:12:54.268Z,9.00
2018-05-10T11:13:54.508Z,9.50
2018-05-10T11:14:54.771Z,9.80
2018-05-10T11:15:54.981Z,9.00
2018-05-10T11:16:55.220Z,9.40
2018-05-10T11:17:55.460Z,9.20
2018-05-10T11:18:55.699Z,9.50
2018-05-10T11:19:55.936Z,9.00
2018-05-10T11:20:56.176Z,10.10
2018-05-10T11:21:56.412Z,10.30
2018-05-10T11:22:56.653Z,9.60
2018-05-10T11:23:56.890Z,9.30
2018-05-10T11:24:57.128Z,10.40
2018-05-10T11:25:57.372Z,9.20
2018-05-10T11:26:57.611Z,10.50
2018-05-10T11:27:57.852Z,9.90
2018-05-10T11:28:58.088Z,9.70
2018-05-10T11:29:58.328Z,9.60
2018-05-10T11:30:58.567Z,9.50
2018-05-10T11:31:58.808Z,9.50
2018-05-10T11:32:59.059Z,10.10
2018-05-10T11:33:59.281Z,9.70
2018-05-10T11:34:59.522Z,9.30
2018-05-10T11:35:59.758Z,11.00
2018-05-10T11:36:59.996Z,9.40
2018-05-10T11:38:00.236Z,9.90
2018-05-10T11:39:00.501Z,9.30
2018-05-10T11:40:00.725Z,10.40
2018-05-10T11:41:00.962Z,8.70
2018-05-10T11:42:01.199Z,9.50
2018-05-10T11:43:01.437Z,8.40
2018-05-10T11:44:01.676Z,11.00
2018-05-10T11:45:01.913Z,10.30
2018-05-10T11:46:02.149Z,10.60
2018-05-10T11:47:02.397Z,9.50
2018-05-10T11:48:02.630Z,10.20
2018-05-10T11:49:02.871Z,10.50
2018-05-10T11:50:03.110Z,9.90
2018-05-10T11:51:03.348Z,10.10
2018-05-10T11:52:03.589Z,9.80
2018-05-10T11:53:03.830Z,9.80
2018-05-10T11:54:04.074Z,9.60
2018-05-10T11:55:04.308Z,9.60
2018-05-10T11:56:04.547Z,9.90
2018-05-10T11:57:04.785Z,9.80
2018-05-10T11:58:05.033Z,10.30
2018-05-10T11:59:05.263Z,9.00
2018-05-10T12:00:05.500Z,9.10
2018-05-10T12:01:05.752Z,8.70
2018-05-10T12:02:05.990Z,9.30
2018-05-10T12:03:06.229Z,9.30
2018-05-10T12:04:06.468Z,9.40
2018-05-10T12:05:06.704Z,9.00
2018-05-10T12:06:06.973Z,9.30
2018-05-10T12:07:07.168Z,8.80
2018-05-10T12:08:07.408Z,8.60
2018-05-10T12:09:07.648Z,9.20
2018-05-10T12:10:07.886Z,9.40
2018-05-10T12:11:08.123Z,10.20
2018-05-10T12:12:08.361Z,10.20
2018-05-10T12:13:08.599Z,11.00
2018-05-10T12:14:08.835Z,10.30
2018-05-10T12:15:09.073Z,10.20
2018-05-10T12:16:09.311Z,10.70
2018-05-10T12:17:09.559Z,8.70
2018-05-10T12:18:09.788Z,10.40
2018-05-10T12:19:10.104Z,11.50
2018-05-10T12:20:10.272Z,12.90
2018-05-10T12:21:10.512Z,11.50
2018-05-10T12:22:10.751Z,12.10
2018-05-10T12:23:10.990Z,11.90
2018-05-10T12:24:11.228Z,11.60
2018-05-10T12:25:11.467Z,11.70
2018-05-10T12:26:11.707Z,11.50
2018-05-10T12:27:11.946Z,11.10
2018-05-10T12:28:12.192Z,11.00
2018-05-10T12:29:12.419Z,11.60
2018-05-10T12:30:12.658Z,12.10
2018-05-10T12:31:12.899Z,11.00
2018-05-10T12:32:13.140Z,11.60
2018-05-10T12:33:13.369Z,10.90
2018-05-10T12:34:13.594Z,10.00
2018-05-10T12:35:13.838Z,12.00
2018-05-10T12:36:14.078Z,10.70
2018-05-10T12:37:14.314Z,10.80
2018-05-10T12:38:14.551Z,10.40
2018-05-10T12:39:14.788Z,10.20
2018-05-10T12:40:15.035Z,10.40
2018-05-10T12:41:15.271Z,10.10
2018-05-10T12:42:15.512Z,9.80
2018-05-10T12:43:15.750Z,9.80
2018-05-10T12:44:15.996Z,9.60
2018-05-10T12:45:16.225Z,9.20
2018-05-10T12:46:16.461Z,8.90
2018-05-10T12:47:16.700Z,9.00
2018-05-10T12:48:16.937Z,9.30
2018-05-10T12:49:17.172Z,9.30
2018-05-10T12:50:17.409Z,8.50
2018-05-10T12:51:17.644Z,8.80
2018-05-10T12:52:17.882Z,8.10
2018-05-10T12:53:18.121Z,8.00
2018-05-10T12:54:18.355Z,7.20
2018-05-10T12:55:18.619Z,6.90
2018-05-10T12:56:19.001Z,7.10
2018-05-10T12:57:19.092Z,6.70
2018-05-10T12:58:19.326Z,6.70
2018-05-10T12:59:19.562Z,6.80
2018-05-10T13:00:19.817Z,6.60
2018-05-10T13:01:20.028Z,7.70
2018-05-10T13:02:20.265Z,7.60
2018-05-10T13:03:20.508Z,7.60
2018-05-10T13:04:20.742Z,8.60
2018-05-10T13:05:20.978Z,7.30
2018-05-10T13:06:21.221Z,8.70
2018-05-10T13:07:21.452Z,8.80
2018-05-10T13:08:21.737Z,9.90
2018-05-10T13:09:21.924Z,9.30
2018-05-10T13:10:22.165Z,10.40
2018-05-10T13:11:22.410Z,10.60
2018-05-10T13:12:22.642Z,11.20
2018-05-10T13:13:22.954Z,11.00
2018-05-10T13:14:23.121Z,12.20
2018-05-10T13:15:23.359Z,11.80
2018-05-10T13:16:23.596Z,11.50
2018-05-10T13:17:23.828Z,12.30
2018-05-10T13:18:24.060Z,11.90
2018-05-10T13:19:24.402Z,11.90